Time;durP1;ratioP1;P1;durP2;ratioP2;P2;SDS_P1;SDS_P2;PMS_P1;PMS_P2;Temp;Humidity;BMP_temperature;BMP_pressure;BME280_temperature;BME280_humidity;BME280_pressure;Samples;Min_cycle;Max_cycle;Signal;HPM_P1;HPM_P2
2022/02/20 00:00:23;;;;;;;6.23;1.60;;;5.00;58.00;;;;;;5134803;27;20053;-81
2022/02/20 00:02:49;;;;;;;6.40;1.40;;;5.00;58.30;;;;;;5132800;27;20036;-81
2022/02/20 00:05:15;;;;;;;8.13;2.53;;;5.10;58.30;;;;;;5132742;27;20031;-81
2022/02/20 00:07:41;;;;;;;4.93;1.53;;;5.10;58.20;;;;;;5128519;27;20059;-81
2022/02/20 00:10:07;;;;;;;5.27;1.30;;;5.10;58.40;;;;;;5156142;27;20035;-81
2022/02/20 00:12:33;;;;;;;5.67;1.67;;;5.10;58.20;;;;;;5150648;27;20039;-82
2022/02/20 00:14:58;;;;;;;6.07;1.13;;;5.10;58.20;;;;;;5134141;27;20039;-81
2022/02/20 00:17:24;;;;;;;5.23;1.50;;;5.10;58.00;;;;;;5132503;27;20435;-81
2022/02/20 00:19:50;;;;;;;8.53;2.43;;;5.10;58.00;;;;;;5143482;27;20020;-82
2022/02/20 00:22:16;;;;;;;4.13;1.30;;;5.10;58.10;;;;;;5120376;27;20472;-82
2022/02/20 00:24:42;;;;;;;5.07;1.60;;;5.10;58.00;;;;;;5123955;27;20695;-82
2022/02/20 00:27:08;;;;;;;8.90;1.50;;;5.00;58.20;;;;;;5138161;27;20111;-82
2022/02/20 00:29:34;;;;;;;7.13;1.30;;;5.00;58.30;;;;;;5113353;27;20036;-81
2022/02/20 00:32:00;;;;;;;3.27;0.97;;;4.90;58.30;;;;;;5127607;27;20031;-81
2022/02/20 00:34:25;;;;;;;8.93;2.00;;;5.00;58.70;;;;;;5137803;27;20083;-82
2022/02/20 00:36:51;;;;;;;5.67;1.20;;;5.10;58.60;;;;;;5137710;27;20679;-82
2022/02/20 00:39:17;;;;;;;6.50;1.43;;;5.10;58.70;;;;;;5131926;27;20035;-81
2022/02/20 00:41:43;;;;;;;3.07;1.17;;;5.10;58.50;;;;;;5124606;27;20046;-82
2022/02/20 00:44:08;;;;;;;8.20;1.23;;;5.10;58.60;;;;;;5119310;27;20027;-81
2022/02/20 00:46:34;;;;;;;4.80;1.60;;;5.10;58.60;;;;;;5136365;27;20039;-81
2022/02/20 00:49:00;;;;;;;4.43;1.00;;;5.10;58.60;;;;;;5132562;27;20031;-81
2022/02/20 00:51:26;;;;;;;6.53;1.40;;;5.00;58.70;;;;;;5133562;27;20032;-81
2022/02/20 00:53:51;;;;;;;8.70;1.63;;;5.00;58.60;;;;;;5149629;27;20391;-81
2022/02/20 00:56:17;;;;;;;5.87;1.10;;;4.90;58.60;;;;;;5117185;27;20443;-80
2022/02/20 00:58:43;;;;;;;5.20;1.13;;;4.90;58.70;;;;;;5131272;27;20023;-81
2022/02/20 01:01:10;;;;;;;5.57;1.43;;;4.90;58.90;;;;;;5132251;27;20372;-81
2022/02/20 01:03:35;;;;;;;5.50;1.93;;;5.00;59.00;;;;;;5148129;27;20032;-81
2022/02/20 01:06:01;;;;;;;7.50;2.03;;;4.90;58.80;;;;;;5135152;27;20030;-81
2022/02/20 01:08:27;;;;;;;19.30;4.73;;;5.00;58.90;;;;;;5139057;27;20031;-81
2022/02/20 01:10:53;;;;;;;8.10;1.83;;;4.90;58.70;;;;;;5132070;27;20027;-81
2022/02/20 01:13:19;;;;;;;5.47;2.53;;;4.90;58.90;;;;;;5124463;27;20030;-80
2022/02/20 01:15:45;;;;;;;6.33;2.03;;;4.80;58.90;;;;;;5130311;27;20043;-81
2022/02/20 01:18:10;;;;;;;8.83;2.50;;;4.80;59.00;;;;;;5133690;27;20023;-81
2022/02/20 01:20:36;;;;;;;4.40;1.43;;;4.70;59.10;;;;;;5131828;27;20468;-81
2022/02/20 01:23:02;;;;;;;8.30;2.17;;;4.70;59.20;;;;;;5134649;27;20121;-81
2022/02/20 01:25:28;;;;;;;8.27;1.53;;;4.80;59.30;;;;;;5149276;27;20511;-81
2022/02/20 01:27:54;;;;;;;5.60;1.20;;;4.70;59.30;;;;;;5148190;27;20072;-80
2022/02/20 01:30:20;;;;;;;6.87;1.40;;;4.70;59.20;;;;;;5146366;27;20483;-80
2022/02/20 01:32:46;;;;;;;6.53;1.60;;;4.70;59.50;;;;;;5127463;28;20123;-81
2022/02/20 01:35:11;;;;;;;4.77;1.73;;;4.80;59.50;;;;;;5128872;27;20039;-81
2022/02/20 01:37:37;;;;;;;2.60;1.10;;;5.00;59.50;;;;;;5111537;28;20023;-81
2022/02/20 01:40:04;;;;;;;5.40;1.60;;;5.10;59.40;;;;;;5134189;27;20027;-81
2022/02/20 01:42:31;;;;;;;6.33;2.00;;;5.10;59.20;;;;;;5128848;27;20434;-81
2022/02/20 01:44:57;;;;;;;12.73;2.57;;;5.00;59.20;;;;;;5127970;27;20024;-81
2022/02/20 01:47:24;;;;;;;5.03;1.73;;;5.00;59.20;;;;;;5137300;27;20484;-81
2022/02/20 01:49:50;;;;;;;8.60;2.43;;;5.00;59.20;;;;;;5134590;27;20079;-81
2022/02/20 01:52:16;;;;;;;6.03;2.17;;;5.00;59.20;;;;;;5125333;27;20425;-83
2022/02/20 01:54:42;;;;;;;7.77;2.47;;;5.00;59.30;;;;;;5135614;27;20023;-83
2022/02/20 01:57:09;;;;;;;10.13;2.97;;;5.10;59.20;;;;;;5140319;27;20030;-83
2022/02/20 01:59:35;;;;;;;9.50;2.93;;;5.10;59.30;;;;;;5132927;27;20084;-83
2022/02/20 02:02:01;;;;;;;10.93;3.10;;;5.10;59.30;;;;;;5155346;27;20026;-83
2022/02/20 02:04:27;;;;;;;8.50;2.37;;;5.10;59.30;;;;;;5140920;27;20034;-83
2022/02/20 02:06:52;;;;;;;8.13;2.83;;;5.20;59.40;;;;;;5141020;27;20039;-83
2022/02/20 02:09:19;;;;;;;6.50;2.43;;;5.20;59.20;;;;;;5136925;27;20032;-83
2022/02/20 02:11:47;;;;;;;7.00;2.10;;;5.30;59.30;;;;;;5136401;27;20034;-83
2022/02/20 02:14:13;;;;;;;4.33;1.60;;;5.30;59.40;;;;;;5137373;27;20031;-83
2022/02/20 02:16:39;;;;;;;8.20;2.97;;;5.30;59.40;;;;;;5153269;27;20030;-83
2022/02/20 02:19:05;;;;;;;6.20;2.37;;;5.20;59.50;;;;;;5136269;27;20433;-83
2022/02/20 02:21:31;;;;;;;6.27;2.70;;;5.20;59.50;;;;;;5124707;27;20050;-83
2022/02/20 02:23:56;;;;;;;8.90;2.73;;;5.30;59.40;;;;;;5131473;27;20080;-83
2022/02/20 02:26:23;;;;;;;5.67;2.20;;;5.30;59.30;;;;;;5135589;27;20095;-83
2022/02/20 02:28:49;;;;;;;11.20;2.50;;;5.30;59.40;;;;;;5131189;27;20036;-83
2022/02/20 02:31:16;;;;;;;7.17;1.80;;;5.30;59.30;;;;;;5145550;27;20110;-83
2022/02/20 02:33:44;;;;;;;7.60;1.77;;;5.30;59.20;;;;;;5147241;27;20028;-83
2022/02/20 02:36:10;;;;;;;4.57;1.40;;;5.20;59.20;;;;;;5117174;27;20027;-84
2022/02/20 02:38:36;;;;;;;5.37;2.13;;;5.20;59.30;;;;;;5122638;27;20031;-84
2022/02/20 02:41:06;;;;;;;10.00;2.17;;;5.20;59.30;;;;;;5123211;27;20392;-83
2022/02/20 02:43:37;;;;;;;8.17;2.40;;;5.20;59.30;;;;;;5136241;27;20483;-83
2022/02/20 02:46:04;;;;;;;6.73;2.57;;;5.10;59.40;;;;;;5142294;27;20031;-83
2022/02/20 02:48:30;;;;;;;7.93;2.43;;;5.10;59.40;;;;;;5140017;27;20024;-83
2022/02/20 02:50:59;;;;;;;4.00;1.93;;;5.10;59.50;;;;;;5118885;28;20034;-83
2022/02/20 02:53:25;;;;;;;8.23;2.20;;;5.10;59.60;;;;;;5118351;27;20034;-83
2022/02/20 02:55:52;;;;;;;5.50;1.97;;;5.10;59.60;;;;;;5133629;28;20028;-82
2022/02/20 02:58:27;;;;;;;10.03;2.60;;;5.10;59.60;;;;;;5135441;28;20072;-83
2022/02/20 03:00:54;;;;;;;10.03;3.70;;;5.10;59.70;;;;;;5143950;27;20056;-83
2022/02/20 03:03:20;;;;;;;9.17;2.90;;;5.10;59.80;;;;;;5125860;28;20015;-82
2022/02/20 03:05:46;;;;;;;9.70;3.87;;;5.00;59.80;;;;;;5133200;28;20029;-83
2022/02/20 03:08:11;;;;;;;7.93;3.30;;;5.00;60.00;;;;;;5129764;28;20027;-83
2022/02/20 03:10:37;;;;;;;9.73;3.23;;;5.00;60.00;;;;;;5133566;27;20387;-83
2022/02/20 03:13:04;;;;;;;8.47;2.93;;;5.00;60.10;;;;;;5118492;28;20388;-83
2022/02/20 03:15:30;;;;;;;9.50;3.30;;;5.00;60.30;;;;;;5132803;28;20079;-84
2022/02/20 03:17:55;;;;;;;6.27;2.13;;;5.00;60.40;;;;;;5144205;27;20023;-83
2022/02/20 03:20:21;;;;;;;10.77;3.10;;;4.90;60.40;;;;;;5150587;27;20023;-83
2022/02/20 03:22:47;;;;;;;5.13;1.80;;;4.90;60.40;;;;;;5139613;27;20015;-83
2022/02/20 03:25:13;;;;;;;7.47;1.80;;;4.90;60.40;;;;;;5133105;28;20502;-83
2022/02/20 03:27:38;;;;;;;5.83;2.07;;;4.90;60.30;;;;;;5127209;27;20031;-83
2022/02/20 03:30:05;;;;;;;8.63;2.10;;;4.80;60.40;;;;;;5130982;27;20027;-81
2022/02/20 03:32:31;;;;;;;9.50;2.80;;;4.90;60.40;;;;;;5120220;28;20026;-81
2022/02/20 03:34:57;;;;;;;7.47;2.37;;;4.80;60.40;;;;;;5132732;28;20027;-81
2022/02/20 03:37:22;;;;;;;5.07;2.03;;;4.80;60.60;;;;;;5150721;27;20023;-81
2022/02/20 03:39:48;;;;;;;4.97;1.90;;;4.80;60.60;;;;;;5122888;28;20024;-81
2022/02/20 03:42:14;;;;;;;4.03;1.40;;;4.80;60.70;;;;;;5118137;28;20027;-81
2022/02/20 03:44:39;;;;;;;9.60;2.13;;;4.90;60.60;;;;;;5148074;27;20468;-81
2022/02/20 03:47:05;;;;;;;7.13;2.13;;;4.80;60.50;;;;;;5110275;27;1204945;-82
2022/02/20 03:49:32;;;;;;;5.90;1.60;;;4.80;60.60;;;;;;5148945;27;20027;-81
2022/02/20 03:51:58;;;;;;;3.10;1.30;;;4.80;60.60;;;;;;5151214;27;20019;-81
2022/02/20 03:54:23;;;;;;;4.80;1.40;;;4.80;60.80;;;;;;5129836;27;20034;-82
2022/02/20 03:56:49;;;;;;;6.70;1.70;;;4.80;60.70;;;;;;5130987;27;20164;-81
2022/02/20 03:59:15;;;;;;;7.67;1.90;;;4.80;60.80;;;;;;5146837;27;20076;-81
2022/02/20 04:01:40;;;;;;;6.07;1.70;;;4.90;61.00;;;;;;5146577;27;20403;-81
2022/02/20 04:04:06;;;;;;;6.83;1.30;;;4.90;60.90;;;;;;5131628;27;20038;-82
2022/02/20 04:06:32;;;;;;;5.40;1.33;;;5.00;60.80;;;;;;5132941;27;20103;-82
2022/02/20 04:08:57;;;;;;;4.40;0.80;;;4.90;60.70;;;;;;5150727;27;20056;-82
2022/02/20 04:11:23;;;;;;;4.77;1.20;;;4.90;60.70;;;;;;5140727;27;20456;-82
2022/02/20 04:13:49;;;;;;;5.47;1.40;;;4.90;60.70;;;;;;5131442;27;20076;-82
2022/02/20 04:16:14;;;;;;;3.50;1.30;;;4.90;60.80;;;;;;5132625;27;20037;-82
2022/02/20 04:18:40;;;;;;;3.87;1.30;;;4.90;60.80;;;;;;5147526;27;20023;-82
2022/02/20 04:21:06;;;;;;;6.13;1.97;;;4.90;60.90;;;;;;5143868;27;20106;-82
2022/02/20 04:23:32;;;;;;;9.20;2.33;;;4.90;60.80;;;;;;5128051;27;20030;-82
2022/02/20 04:26:02;;;;;;;6.70;2.10;;;4.90;60.90;;;;;;5140731;27;20115;-82
2022/02/20 04:28:30;;;;;;;6.63;2.43;;;5.00;60.90;;;;;;5130035;27;20349;-82
2022/02/20 04:30:56;;;;;;;7.13;2.53;;;5.00;60.80;;;;;;5141125;27;20117;-82
2022/02/20 04:33:21;;;;;;;8.50;2.83;;;4.90;60.80;;;;;;5124856;27;20531;-82
2022/02/20 04:35:47;;;;;;;6.43;2.10;;;5.00;60.80;;;;;;5135540;27;20113;-81
2022/02/20 04:38:13;;;;;;;3.97;1.67;;;5.00;61.00;;;;;;5139900;27;20059;-81
2022/02/20 04:40:39;;;;;;;9.77;1.80;;;5.00;61.00;;;;;;5133381;27;20023;-81
2022/02/20 04:43:04;;;;;;;4.63;1.20;;;5.00;61.10;;;;;;5149910;27;20031;-82
2022/02/20 04:45:30;;;;;;;5.57;1.53;;;5.10;61.10;;;;;;5121742;27;20027;-82
2022/02/20 04:47:56;;;;;;;6.53;1.90;;;5.10;61.00;;;;;;5114057;27;20510;-81
2022/02/20 04:50:22;;;;;;;8.37;1.93;;;5.10;61.60;;;;;;5124258;27;20112;-82
2022/02/20 04:52:47;;;;;;;9.73;2.97;;;5.20;61.00;;;;;;5150173;27;20015;-82
2022/02/20 04:55:13;;;;;;;7.83;3.40;;;5.20;61.00;;;;;;5132357;27;20030;-82
2022/02/20 04:57:41;;;;;;;9.13;3.23;;;5.20;60.90;;;;;;5149911;27;20038;-82
2022/02/20 05:00:09;;;;;;;10.87;3.83;;;5.20;61.00;;;;;;5127678;27;20012;-81
2022/02/20 05:02:35;;;;;;;13.53;5.20;;;5.20;61.10;;;;;;5123874;27;20050;-82
2022/02/20 05:05:01;;;;;;;13.00;6.00;;;5.20;61.10;;;;;;5137406;27;20538;-82
2022/02/20 05:07:27;;;;;;;12.53;4.67;;;5.20;61.10;;;;;;5132619;27;20041;-82
2022/02/20 05:09:52;;;;;;;11.90;4.43;;;5.20;61.20;;;;;;5132755;27;20493;-82
2022/02/20 05:12:18;;;;;;;11.03;5.10;;;5.10;61.20;;;;;;5149466;27;20019;-82
2022/02/20 05:14:44;;;;;;;7.87;4.00;;;5.20;61.30;;;;;;5124043;27;20019;-82
2022/02/20 05:17:12;;;;;;;13.33;3.77;;;5.10;61.20;;;;;;5132435;27;20030;-82
2022/02/20 05:19:39;;;;;;;10.73;3.90;;;5.10;61.30;;;;;;5114367;27;20011;-82
2022/02/20 05:22:04;;;;;;;8.47;3.47;;;5.10;61.40;;;;;;5132684;27;20384;-82
2022/02/20 05:24:30;;;;;;;11.53;3.57;;;5.00;61.60;;;;;;5127990;27;20027;-82
2022/02/20 05:26:56;;;;;;;8.83;3.10;;;5.10;61.70;;;;;;5131395;27;20088;-82
2022/02/20 05:29:21;;;;;;;9.73;3.40;;;5.10;61.70;;;;;;5133446;27;20034;-81
2022/02/20 05:31:47;;;;;;;7.47;3.23;;;5.10;61.80;;;;;;5142714;27;20051;-81
2022/02/20 05:34:13;;;;;;;13.40;3.90;;;5.10;61.70;;;;;;5130954;28;20110;-81
2022/02/20 05:36:38;;;;;;;10.73;3.60;;;5.20;61.60;;;;;;5131647;27;20179;-82
2022/02/20 05:39:04;;;;;;;12.87;4.17;;;5.20;61.50;;;;;;5117213;28;20102;-82
2022/02/20 05:41:30;;;;;;;8.30;3.53;;;5.10;61.50;;;;;;5143779;27;20019;-82
2022/02/20 05:43:56;;;;;;;13.13;3.60;;;5.10;61.70;;;;;;5130124;27;20438;-82
2022/02/20 05:46:21;;;;;;;10.93;3.83;;;5.10;61.70;;;;;;5111803;28;20142;-83
2022/02/20 05:48:47;;;;;;;7.60;3.10;;;5.10;61.80;;;;;;5111988;28;20051;-82
2022/02/20 05:51:13;;;;;;;9.53;4.13;;;5.10;61.80;;;;;;5122027;28;20050;-82
2022/02/20 05:53:39;;;;;;;7.33;3.37;;;5.10;61.90;;;;;;5136510;27;20035;-82
2022/02/20 05:56:05;;;;;;;9.20;3.90;;;5.10;61.90;;;;;;5131878;28;20025;-83
2022/02/20 05:58:32;;;;;;;10.00;3.97;;;5.10;61.90;;;;;;5133283;27;20027;-83
2022/02/20 06:00:58;;;;;;;11.30;4.03;;;5.10;62.00;;;;;;5122545;28;20047;-83
2022/02/20 06:03:24;;;;;;;8.13;3.60;;;5.10;61.90;;;;;;5136704;27;20015;-82
2022/02/20 06:05:50;;;;;;;9.80;4.00;;;5.10;62.00;;;;;;5125196;27;20023;-83
2022/02/20 06:08:15;;;;;;;9.77;3.87;;;5.10;62.00;;;;;;5149310;27;20023;-82
2022/02/20 06:10:41;;;;;;;7.53;3.50;;;5.10;62.10;;;;;;5147988;27;20030;-82
2022/02/20 06:13:07;;;;;;;13.80;4.40;;;5.10;62.30;;;;;;5133105;27;20023;-82
2022/02/20 06:15:33;;;;;;;14.13;5.47;;;5.10;62.30;;;;;;5145597;27;20059;-82
2022/02/20 06:17:59;;;;;;;14.50;5.33;;;5.10;62.40;;;;;;5130373;27;20060;-82
2022/02/20 06:20:25;;;;;;;13.03;4.20;;;5.10;62.50;;;;;;5155614;27;20023;-82
2022/02/20 06:22:53;;;;;;;12.47;4.50;;;5.00;62.60;;;;;;5147268;27;20110;-82
2022/02/20 06:25:19;;;;;;;11.77;3.37;;;5.10;62.50;;;;;;5131351;27;20051;-82
2022/02/20 06:27:44;;;;;;;10.07;4.30;;;5.10;62.20;;;;;;5141025;27;20068;-82
2022/02/20 06:30:10;;;;;;;14.33;4.53;;;5.10;62.30;;;;;;5120834;27;20035;-82
2022/02/20 06:32:36;;;;;;;15.07;5.10;;;5.00;62.30;;;;;;5142733;27;20024;-81
2022/02/20 06:35:02;;;;;;;8.17;3.60;;;5.00;62.30;;;;;;5123825;27;20035;-82
2022/02/20 06:37:28;;;;;;;9.17;3.97;;;5.00;63.00;;;;;;5136277;27;20471;-82
2022/02/20 06:39:54;;;;;;;17.13;4.13;;;5.10;62.30;;;;;;5128233;27;20029;-81
2022/02/20 06:42:19;;;;;;;13.33;4.13;;;5.00;62.30;;;;;;5124866;27;20092;-82
2022/02/20 06:44:45;;;;;;;14.33;4.67;;;5.10;62.40;;;;;;5129717;27;20413;-81
2022/02/20 06:47:11;;;;;;;15.37;4.40;;;5.10;62.30;;;;;;5124909;27;20582;-82
2022/02/20 06:49:37;;;;;;;11.73;4.70;;;5.10;62.20;;;;;;5124973;27;20019;-82
2022/02/20 06:52:03;;;;;;;12.40;5.87;;;5.10;62.30;;;;;;5133717;27;20031;-82
2022/02/20 06:54:29;;;;;;;11.37;5.50;;;5.10;62.30;;;;;;5115878;27;20114;-82
2022/02/20 06:56:56;;;;;;;12.70;5.77;;;5.10;62.40;;;;;;5132221;27;20115;-82
2022/02/20 06:59:23;;;;;;;12.07;5.77;;;5.20;62.20;;;;;;5158275;27;20019;-82
2022/02/20 07:01:49;;;;;;;8.87;3.90;;;5.20;62.20;;;;;;5136923;27;20060;-83
2022/02/20 07:04:15;;;;;;;12.07;5.07;;;5.10;61.90;;;;;;5140377;27;20448;-82
2022/02/20 07:06:44;;;;;;;9.20;5.20;;;5.10;61.90;;;;;;5139855;27;20114;-83
2022/02/20 07:09:14;;;;;;;8.70;4.97;;;5.10;62.00;;;;;;5116173;27;20084;-83
2022/02/20 07:11:40;;;;;;;10.17;4.77;;;5.10;62.10;;;;;;5134600;27;20019;-82
2022/02/20 07:14:06;;;;;;;11.80;4.63;;;5.20;62.10;;;;;;5132144;27;20027;-82
2022/02/20 07:16:33;;;;;;;14.43;5.73;;;5.20;62.00;;;;;;5121333;27;20030;-83
2022/02/20 07:19:00;;;;;;;16.33;7.07;;;5.30;61.90;;;;;;5128793;27;20024;-83
2022/02/20 07:21:28;;;;;;;12.20;6.30;;;5.30;61.80;;;;;;5133039;27;20019;-82
2022/02/20 07:23:55;;;;;;;15.60;6.00;;;5.30;61.80;;;;;;5134294;27;20475;-83
2022/02/20 07:26:21;;;;;;;20.87;5.13;;;5.30;61.80;;;;;;5151684;27;20027;-82
2022/02/20 07:28:47;;;;;;;14.43;5.40;;;5.30;61.80;;;;;;5135500;27;20027;-82
2022/02/20 07:31:13;;;;;;;13.30;5.70;;;5.30;61.70;;;;;;5132874;27;20046;-83
2022/02/20 07:33:39;;;;;;;14.00;5.47;;;5.40;61.70;;;;;;5123815;27;20023;-83
2022/02/20 07:36:05;;;;;;;9.60;5.03;;;5.40;61.80;;;;;;5147847;27;20031;-82
2022/02/20 07:38:31;;;;;;;14.07;5.87;;;5.40;61.80;;;;;;5120905;27;20023;-83
2022/02/20 07:40:58;;;;;;;15.47;7.77;;;5.40;61.90;;;;;;5132596;27;20023;-82
2022/02/20 07:43:25;;;;;;;14.40;7.90;;;5.40;61.90;;;;;;5123287;27;20030;-83
2022/02/20 07:45:51;;;;;;;17.90;8.37;;;5.40;61.90;;;;;;5124579;27;20028;-82
2022/02/20 07:48:17;;;;;;;26.33;11.67;;;5.50;61.90;;;;;;5125355;27;20087;-83
2022/02/20 07:50:43;;;;;;;18.33;10.50;;;5.50;61.90;;;;;;5117176;27;20023;-82
2022/02/20 07:53:09;;;;;;;23.00;9.23;;;5.60;61.90;;;;;;5117478;27;20027;-83
2022/02/20 07:55:34;;;;;;;19.00;7.80;;;5.60;61.90;;;;;;5119735;27;20471;-82
2022/02/20 07:58:08;;;;;;;14.53;7.47;;;5.50;62.00;;;;;;5144168;27;20694;-83
2022/02/20 08:00:34;;;;;;;20.27;9.63;;;5.60;62.10;;;;;;5132808;27;20023;-83
2022/02/20 08:03:02;;;;;;;25.00;12.37;;;5.70;62.00;;;;;;5145894;27;20604;-83
2022/02/20 08:05:28;;;;;;;20.37;10.57;;;5.70;61.90;;;;;;5131928;27;20022;-82
2022/02/20 08:07:54;;;;;;;17.00;8.77;;;5.70;61.80;;;;;;5133750;27;20023;-83
2022/02/20 08:10:21;;;;;;;16.90;8.77;;;5.80;61.90;;;;;;5133213;27;20038;-83
2022/02/20 08:12:47;;;;;;;14.97;8.10;;;5.80;61.80;;;;;;5146834;27;20031;-83
2022/02/20 08:15:13;;;;;;;14.00;8.70;;;5.90;61.60;;;;;;5121187;27;20456;-83
2022/02/20 08:17:47;;;;;;;23.73;9.30;;;5.90;61.50;;;;;;5121341;27;20015;-82
2022/02/20 08:20:13;;;;;;;17.73;9.00;;;5.90;61.50;;;;;;5134149;27;20494;-83
2022/02/20 08:22:40;;;;;;;18.83;9.27;;;6.00;61.50;;;;;;5150416;27;20015;-82
2022/02/20 08:25:06;;;;;;;19.93;8.50;;;6.00;61.50;;;;;;5133472;27;20107;-83
2022/02/20 08:27:34;;;;;;;19.57;9.23;;;6.10;61.50;;;;;;5133352;27;20047;-83
2022/02/20 08:30:00;;;;;;;17.80;8.57;;;6.10;61.40;;;;;;5137233;27;20060;-83
2022/02/20 08:32:26;;;;;;;15.60;8.57;;;6.20;61.40;;;;;;5148148;27;20023;-83
2022/02/20 08:34:51;;;;;;;20.43;9.17;;;6.20;61.30;;;;;;5112547;27;20016;-83
2022/02/20 08:37:17;;;;;;;21.37;9.13;;;6.60;60.80;;;;;;5124520;27;20053;-83
2022/02/20 08:39:43;;;;;;;17.80;8.33;;;7.70;58.40;;;;;;5133407;27;20106;-83
2022/02/20 08:42:09;;;;;;;17.27;7.90;;;8.40;56.70;;;;;;5150056;27;20020;-83
2022/02/20 08:44:36;;;;;;;18.77;8.43;;;9.10;55.00;;;;;;5127594;27;20634;-83
2022/02/20 08:47:03;;;;;;;21.23;9.57;;;10.60;52.40;;;;;;5127392;27;20120;-84
2022/02/20 08:49:29;;;;;;;16.90;8.80;;;11.30;50.70;;;;;;5121430;27;20106;-84
2022/02/20 08:51:55;;;;;;;13.07;7.53;;;12.50;49.20;;;;;;5129564;27;20038;-84
2022/02/20 08:54:21;;;;;;;13.50;7.33;;;13.00;48.10;;;;;;5136612;27;20027;-83
2022/02/20 08:56:47;;;;;;;18.70;7.57;;;12.60;48.80;;;;;;5136213;27;20030;-84
2022/02/20 08:59:13;;;;;;;11.13;5.47;;;12.30;49.90;;;;;;5121492;27;22142;-84
2022/02/20 09:01:38;;;;;;;10.63;5.33;;;12.00;50.80;;;;;;5121187;27;20540;-84
2022/02/20 09:04:04;;;;;;;13.93;5.37;;;11.50;51.00;;;;;;5130744;27;20027;-84
2022/02/20 09:06:31;;;;;;;10.50;5.57;;;11.00;51.90;;;;;;5137620;27;20124;-84
2022/02/20 09:08:57;;;;;;;10.37;4.47;;;10.70;52.50;;;;;;5141735;27;20059;-83
2022/02/20 09:11:24;;;;;;;9.77;4.57;;;10.40;52.30;;;;;;5112008;28;20019;-84
2022/02/20 09:13:50;;;;;;;9.77;4.63;;;10.20;52.60;;;;;;5127437;27;20034;-84
2022/02/20 09:16:16;;;;;;;7.27;3.37;;;10.10;53.00;;;;;;5146494;27;20054;-84
2022/02/20 09:18:41;;;;;;;10.57;5.63;;;10.00;52.60;;;;;;5112215;27;20441;-83
2022/02/20 09:21:07;;;;;;;10.50;3.60;;;9.90;52.30;;;;;;5125858;27;20031;-84
2022/02/20 09:23:33;;;;;;;6.97;2.90;;;10.00;52.50;;;;;;5116918;27;20114;-83
2022/02/20 09:25:59;;;;;;;5.70;2.53;;;10.00;51.80;;;;;;5120666;27;20027;-84
2022/02/20 09:28:25;;;;;;;8.93;2.80;;;10.00;51.80;;;;;;5132244;27;20383;-84
2022/02/20 09:30:50;;;;;;;11.53;5.90;;;10.40;51.80;;;;;;5136536;27;20041;-84
2022/02/20 09:33:16;;;;;;;11.90;6.40;;;10.90;51.00;;;;;;5115893;28;20032;-84
2022/02/20 09:35:42;;;;;;;15.63;9.13;;;11.30;50.40;;;;;;5132187;28;20023;-84
2022/02/20 09:38:07;;;;;;;6.93;3.00;;;11.60;49.70;;;;;;5144927;27;20054;-84
2022/02/20 09:40:33;;;;;;;9.63;3.47;;;12.00;49.30;;;;;;5128754;27;20099;-84
2022/02/20 09:43:02;;;;;;;10.05;3.70;;;12.20;48.80;;;;;;5129259;27;20035;-85
2022/02/20 09:45:28;;;;;;;8.50;3.25;;;12.30;48.90;;;;;;5127431;28;20023;-84
2022/02/20 09:47:54;;;;;;;6.43;3.45;;;12.40;48.80;;;;;;5138818;27;20051;-84
2022/02/20 09:50:19;;;;;;;8.38;4.93;;;12.40;48.70;;;;;;5120829;28;20102;-84
2022/02/20 09:52:45;;;;;;;8.82;4.70;;;12.30;48.30;;;;;;5111757;28;20038;-84
2022/02/20 09:55:11;;;;;;;8.17;3.70;;;11.90;48.00;;;;;;5148062;27;20114;-84
2022/02/20 09:57:38;;;;;;;10.63;3.50;;;11.50;47.90;;;;;;5148956;27;20032;-84
2022/02/20 10:00:09;;;;;;;7.23;3.67;;;11.30;48.10;;;;;;5149150;27;20026;-84
2022/02/20 10:02:36;;;;;;;6.67;3.60;;;11.20;48.10;;;;;;5139679;27;20022;-84
2022/02/20 10:05:04;;;;;;;7.37;2.87;;;11.10;48.10;;;;;;5149748;27;20391;-84
2022/02/20 10:07:33;;;;;;;7.30;2.70;;;10.90;48.10;;;;;;5145003;27;20027;-84
2022/02/20 10:10:04;;;;;;;10.10;4.80;;;10.80;48.20;;;;;;5135695;27;20122;-83
2022/02/20 10:12:30;;;;;;;6.00;2.90;;;10.70;48.00;;;;;;5138545;27;20023;-82
2022/02/20 10:14:56;;;;;;;5.10;2.70;;;10.60;47.90;;;;;;5155555;27;20023;-83
2022/02/20 10:17:25;;;;;;;6.23;2.47;;;10.40;48.20;;;;;;5128337;27;20028;-83
2022/02/20 10:19:55;;;;;;;10.43;5.83;;;10.40;48.40;;;;;;5128511;27;20028;-83
2022/02/20 10:22:35;;;;;;;14.70;10.10;;;10.40;48.00;;;;;;5139463;27;20496;-84
2022/02/20 10:25:02;;;;;;;10.27;6.17;;;10.20;48.00;;;;;;5133635;27;20122;-84
2022/02/20 10:27:28;;;;;;;7.43;3.43;;;10.20;48.10;;;;;;5152969;27;20033;-84
2022/02/20 10:30:11;;;;;;;7.27;2.87;;;10.20;48.30;;;;;;5152902;27;20031;-84
2022/02/20 10:32:37;;;;;;;7.33;2.10;;;10.30;48.10;;;;;;5122685;27;20019;-83
2022/02/20 10:35:15;;;;;;;4.53;2.13;;;10.40;48.10;;;;;;5135073;27;20418;-84
2022/02/20 10:37:42;;;;;;;5.07;1.73;;;10.50;47.90;;;;;;5116468;28;20028;-84
2022/02/20 10:40:29;;;;;;;5.43;2.10;;;10.50;47.70;;;;;;5135766;27;20058;-84
2022/02/20 10:42:58;;;;;;;6.03;2.03;;;10.50;47.40;;;;;;5115641;28;20411;-84
2022/02/20 10:45:35;;;;;;;9.73;2.30;;;10.50;47.70;;;;;;5140214;27;20050;-84
2022/02/20 10:48:14;;;;;;;6.57;2.80;;;10.50;47.80;;;;;;5117688;27;20579;-83
2022/02/20 10:50:40;;;;;;;8.70;2.80;;;10.50;48.20;;;;;;5146022;27;20027;-84
2022/02/20 10:53:14;;;;;;;10.53;2.70;;;10.50;48.30;;;;;;5130400;27;20023;-84
2022/02/20 10:55:43;;;;;;;9.00;2.90;;;10.70;48.30;;;;;;5128195;27;20084;-84
2022/02/20 10:58:17;;;;;;;8.37;2.43;;;10.80;48.10;;;;;;5142925;27;20030;-84
2022/02/20 11:01:01;;;;;;;6.23;2.70;;;10.90;47.80;;;;;;5129867;27;20361;-84
2022/02/20 11:03:29;;;;;;;8.43;2.97;;;11.00;47.70;;;;;;5132406;27;20432;-84
2022/02/20 11:05:56;;;;;;;7.23;2.13;;;10.90;47.80;;;;;;5140114;27;20387;-84
2022/02/20 11:08:24;;;;;;;4.80;1.97;;;10.90;47.40;;;;;;5147620;27;20031;-84
2022/02/20 11:10:51;;;;;;;5.30;1.87;;;11.00;47.60;;;;;;5127487;27;20031;-83
2022/02/20 11:13:18;;;;;;;4.93;1.87;;;11.00;47.80;;;;;;5134948;27;20399;-84
2022/02/20 11:15:46;;;;;;;5.50;1.80;;;10.90;47.10;;;;;;5127630;27;20019;-84
2022/02/20 11:18:16;;;;;;;2.93;1.60;;;11.00;47.00;;;;;;5143674;27;20020;-84
2022/02/20 11:20:47;;;;;;;7.60;2.57;;;11.00;46.80;;;;;;5128018;27;20020;-84
2022/02/20 11:23:21;;;;;;;3.83;2.17;;;11.20;46.60;;;;;;5136714;27;20046;-84
2022/02/20 11:25:51;;;;;;;4.67;1.90;;;11.30;46.50;;;;;;5134777;27;20031;-84
2022/02/20 11:28:17;;;;;;;5.43;2.17;;;11.40;46.30;;;;;;5134748;27;20027;-84
2022/02/20 11:30:43;;;;;;;4.73;1.73;;;11.50;46.10;;;;;;5151431;27;20058;-84
2022/02/20 11:33:10;;;;;;;4.03;1.73;;;11.50;46.30;;;;;;5151792;27;20114;-84
2022/02/20 11:35:44;;;;;;;6.87;2.20;;;11.50;45.50;;;;;;5134566;27;20179;-84
2022/02/20 11:38:17;;;;;;;4.23;1.40;;;11.50;45.40;;;;;;5133725;27;20471;-84
2022/02/20 11:41:11;;;;;;;2.43;1.17;;;11.50;45.20;;;;;;5129266;27;20134;-84
2022/02/20 11:43:49;;;;;;;4.83;1.40;;;11.70;44.90;;;;;;5113748;27;20027;-84
2022/02/20 11:46:16;;;;;;;4.80;1.97;;;11.70;44.70;;;;;;5148930;27;20107;-84
2022/02/20 11:49:06;;;;;;;3.93;1.50;;;11.80;44.50;;;;;;5151420;27;20035;-84
2022/02/20 11:51:34;;;;;;;5.43;1.70;;;11.90;44.20;;;;;;5138113;27;20027;-84
2022/02/20 11:54:17;;;;;;;6.97;1.67;;;12.10;44.20;;;;;;5133294;27;20054;-84
2022/02/20 11:56:44;;;;;;;2.70;1.40;;;12.20;43.50;;;;;;5136829;27;20110;-84
2022/02/20 11:59:15;;;;;;;5.23;1.70;;;12.20;43.70;;;;;;5149191;27;20483;-84
2022/02/20 12:02:07;;;;;;;4.93;1.73;;;12.30;43.50;;;;;;5124718;27;20510;-84
2022/02/20 12:04:51;;;;;;;4.27;1.50;;;12.30;43.50;;;;;;5123398;27;20012;-84
2022/02/20 12:07:41;;;;;;;2.90;1.80;;;12.50;43.70;;;;;;5131886;27;20483;-84
2022/02/20 12:10:27;;;;;;;5.60;1.83;;;12.60;43.50;;;;;;5145592;27;20495;-84
2022/02/20 12:12:53;;;;;;;4.53;1.70;;;12.60;43.30;;;;;;5133382;27;20052;-85
2022/02/20 12:15:28;;;;;;;7.57;1.63;;;12.70;43.40;;;;;;5130544;27;20031;-84
2022/02/20 12:18:02;;;;;;;4.53;1.57;;;12.90;43.10;;;;;;5133723;27;20084;-85
2022/02/20 12:20:49;;;;;;;4.07;1.40;;;12.90;42.50;;;;;;5138339;27;20015;-84
2022/02/20 12:23:31;;;;;;;5.27;1.47;;;12.90;42.30;;;;;;5137887;27;20026;-84
2022/02/20 12:26:05;;;;;;;2.80;1.17;;;13.00;42.60;;;;;;5133473;27;20065;-84
2022/02/20 12:28:35;;;;;;;3.63;2.10;;;12.90;42.10;;;;;;5131965;27;20118;-84
2022/02/20 12:31:29;;;;;;;3.93;1.50;;;13.00;42.10;;;;;;5127735;27;20039;-84
2022/02/20 12:33:55;;;;;;;3.40;1.23;;;13.00;41.70;;;;;;5128832;27;20031;-84
2022/02/20 12:36:27;;;;;;;7.63;2.10;;;13.10;41.80;;;;;;5138983;27;20506;-84
2022/02/20 12:38:54;;;;;;;5.63;2.10;;;13.30;41.70;;;;;;5126804;27;20028;-84
2022/02/20 12:41:20;;;;;;;3.17;1.67;;;13.30;41.30;;;;;;5121575;27;20483;-84
2022/02/20 12:43:54;;;;;;;5.23;2.00;;;13.30;41.20;;;;;;5138407;27;20031;-84
2022/02/20 12:46:21;;;;;;;4.97;1.40;;;13.30;41.00;;;;;;5130108;27;20075;-84
2022/02/20 12:48:47;;;;;;;5.27;1.67;;;13.30;40.90;;;;;;5129703;27;20024;-83
2022/02/20 12:51:14;;;;;;;4.37;1.40;;;13.50;41.10;;;;;;5129877;27;20111;-84